sensor_id;sensor_type;location;lat;lon;timestamp;temperature;humidity
23335;DHT22;11839;48.598;8.870;2023-08-21T00:00:33;25.50;99.90
23335;DHT22;11839;48.598;8.870;2023-08-21T00:03:01;25.50;99.90
23335;DHT22;11839;48.598;8.870;2023-08-21T00:05:28;25.60;99.90
23335;DHT22;11839;48.598;8.870;2023-08-21T00:07:55;25.70;99.90
23335;DHT22;11839;48.598;8.870;2023-08-21T00:10:22;25.60;99.90
23335;DHT22;11839;48.598;8.870;2023-08-21T00:12:48;25.10;99.90
23335;DHT22;11839;48.598;8.870;2023-08-21T00:15:15;25.00;99.90
23335;DHT22;11839;48.598;8.870;2023-08-21T00:17:43;25.00;99.90
23335;DHT22;11839;48.598;8.870;2023-08-21T00:20:11;25.10;99.90
23335;DHT22;11839;48.598;8.870;2023-08-21T00:22:38;25.30;99.90
23335;DHT22;11839;48.598;8.870;2023-08-21T00:25:05;25.50;99.90
23335;DHT22;11839;48.598;8.870;2023-08-21T00:27:32;25.80;99.90
23335;DHT22;11839;48.598;8.870;2023-08-21T00:30:00;25.80;99.90
23335;DHT22;11839;48.598;8.870;2023-08-21T00:32:27;25.90;99.90
23335;DHT22;11839;48.598;8.870;2023-08-21T00:34:55;25.80;99.90
23335;DHT22;11839;48.598;8.870;2023-08-21T00:37:22;25.70;99.90
23335;DHT22;11839;48.598;8.870;2023-08-21T00:39:49;25.50;99.90
23335;DHT22;11839;48.598;8.870;2023-08-21T00:42:16;25.70;99.90
23335;DHT22;11839;48.598;8.870;2023-08-21T00:44:43;25.80;99.90
23335;DHT22;11839;48.598;8.870;2023-08-21T00:47:10;25.90;99.90
23335;DHT22;11839;48.598;8.870;2023-08-21T00:49:37;26.10;99.90
23335;DHT22;11839;48.598;8.870;2023-08-21T00:52:07;25.60;99.90
23335;DHT22;11839;48.598;8.870;2023-08-21T00:54:35;25.20;99.90
23335;DHT22;11839;48.598;8.870;2023-08-21T00:57:02;25.50;99.90
23335;DHT22;11839;48.598;8.870;2023-08-21T00:59:29;25.70;99.90
23335;DHT22;11839;48.598;8.870;2023-08-21T01:01:56;25.70;99.90
23335;DHT22;11839;48.598;8.870;2023-08-21T01:04:23;25.80;99.90
23335;DHT22;11839;48.598;8.870;2023-08-21T01:06:50;25.40;99.90
23335;DHT22;11839;48.598;8.870;2023-08-21T01:09:24;25.30;99.90
23335;DHT22;11839;48.598;8.870;2023-08-21T01:11:58;25.30;99.90
23335;DHT22;11839;48.598;8.870;2023-08-21T01:14:35;25.40;99.90
23335;DHT22;11839;48.598;8.870;2023-08-21T01:17:04;25.40;99.90
23335;DHT22;11839;48.598;8.870;2023-08-21T01:19:36;25.10;99.90
23335;DHT22;11839;48.598;8.870;2023-08-21T01:22:03;24.40;99.90
23335;DHT22;11839;48.598;8.870;2023-08-21T01:24:32;24.30;99.90
23335;DHT22;11839;48.598;8.870;2023-08-21T01:26:59;24.30;99.90
23335;DHT22;11839;48.598;8.870;2023-08-21T01:29:26;24.80;99.90
23335;DHT22;11839;48.598;8.870;2023-08-21T01:31:56;25.10;99.90
23335;DHT22;11839;48.598;8.870;2023-08-21T01:34:25;25.10;99.90
23335;DHT22;11839;48.598;8.870;2023-08-21T01:36:53;25.10;99.90
23335;DHT22;11839;48.598;8.870;2023-08-21T01:39:20;24.80;99.90
23335;DHT22;11839;48.598;8.870;2023-08-21T01:41:48;24.30;99.90
23335;DHT22;11839;48.598;8.870;2023-08-21T01:44:16;24.60;99.90
23335;DHT22;11839;48.598;8.870;2023-08-21T01:46:43;24.90;99.90
23335;DHT22;11839;48.598;8.870;2023-08-21T01:49:10;25.10;99.90
23335;DHT22;11839;48.598;8.870;2023-08-21T01:51:36;25.10;99.90
23335;DHT22;11839;48.598;8.870;2023-08-21T01:54:03;24.90;99.90
23335;DHT22;11839;48.598;8.870;2023-08-21T01:56:30;24.60;99.90
23335;DHT22;11839;48.598;8.870;2023-08-21T01:58:58;24.40;99.90
23335;DHT22;11839;48.598;8.870;2023-08-21T02:01:25;24.10;99.90
23335;DHT22;11839;48.598;8.870;2023-08-21T02:03:52;24.30;99.90
23335;DHT22;11839;48.598;8.870;2023-08-21T02:06:18;24.60;99.90
23335;DHT22;11839;48.598;8.870;2023-08-21T02:08:45;25.00;99.90
23335;DHT22;11839;48.598;8.870;2023-08-21T02:11:13;25.20;99.90
23335;DHT22;11839;48.598;8.870;2023-08-21T02:13:40;25.20;99.90
23335;DHT22;11839;48.598;8.870;2023-08-21T02:16:08;25.40;99.90
23335;DHT22;11839;48.598;8.870;2023-08-21T02:18:35;25.40;99.90
23335;DHT22;11839;48.598;8.870;2023-08-21T02:21:02;25.40;99.90
23335;DHT22;11839;48.598;8.870;2023-08-21T02:23:28;25.40;99.90
23335;DHT22;11839;48.598;8.870;2023-08-21T02:25:55;25.10;99.90
23335;DHT22;11839;48.598;8.870;2023-08-21T02:28:22;24.90;99.90
23335;DHT22;11839;48.598;8.870;2023-08-21T02:30:49;24.90;99.90
23335;DHT22;11839;48.598;8.870;2023-08-21T02:33:17;24.80;99.90
23335;DHT22;11839;48.598;8.870;2023-08-21T02:35:44;24.60;99.90
23335;DHT22;11839;48.598;8.870;2023-08-21T02:38:10;24.40;99.90
23335;DHT22;11839;48.598;8.870;2023-08-21T02:40:37;24.40;99.90
23335;DHT22;11839;48.598;8.870;2023-08-21T02:43:04;24.30;99.90
23335;DHT22;11839;48.598;8.870;2023-08-21T02:45:31;24.40;99.90
23335;DHT22;11839;48.598;8.870;2023-08-21T02:47:58;24.30;99.90
23335;DHT22;11839;48.598;8.870;2023-08-21T02:50:26;24.30;99.90
23335;DHT22;11839;48.598;8.870;2023-08-21T02:52:53;24.20;99.90
23335;DHT22;11839;48.598;8.870;2023-08-21T02:55:19;24.00;99.90
23335;DHT22;11839;48.598;8.870;2023-08-21T02:57:46;23.90;99.90
23335;DHT22;11839;48.598;8.870;2023-08-21T03:00:13;23.80;99.90
23335;DHT22;11839;48.598;8.870;2023-08-21T03:02:40;23.30;99.90
23335;DHT22;11839;48.598;8.870;2023-08-21T03:05:09;23.40;99.90
23335;DHT22;11839;48.598;8.870;2023-08-21T03:07:38;23.30;99.90
23335;DHT22;11839;48.598;8.870;2023-08-21T03:10:06;23.70;99.90
23335;DHT22;11839;48.598;8.870;2023-08-21T03:12:33;23.90;99.90
23335;DHT22;11839;48.598;8.870;2023-08-21T03:15:00;23.70;99.90
23335;DHT22;11839;48.598;8.870;2023-08-21T03:17:27;23.80;99.90
23335;DHT22;11839;48.598;8.870;2023-08-21T03:19:53;23.90;99.90
23335;DHT22;11839;48.598;8.870;2023-08-21T03:22:20;23.70;99.90
23335;DHT22;11839;48.598;8.870;2023-08-21T03:24:48;23.70;99.90
23335;DHT22;11839;48.598;8.870;2023-08-21T03:27:15;23.80;99.90
23335;DHT22;11839;48.598;8.870;2023-08-21T03:29:42;23.70;99.90
23335;DHT22;11839;48.598;8.870;2023-08-21T03:32:14;23.70;99.90
23335;DHT22;11839;48.598;8.870;2023-08-21T03:34:40;23.40;99.90
23335;DHT22;11839;48.598;8.870;2023-08-21T03:37:07;23.00;99.90
23335;DHT22;11839;48.598;8.870;2023-08-21T03:39:34;22.70;99.90
23335;DHT22;11839;48.598;8.870;2023-08-21T03:42:04;23.10;99.90
23335;DHT22;11839;48.598;8.870;2023-08-21T03:44:31;23.50;99.90
23335;DHT22;11839;48.598;8.870;2023-08-21T03:46:59;23.70;99.90
23335;DHT22;11839;48.598;8.870;2023-08-21T03:49:25;23.80;99.90
23335;DHT22;11839;48.598;8.870;2023-08-21T03:51:52;23.70;99.90
23335;DHT22;11839;48.598;8.870;2023-08-21T03:54:19;23.40;99.90
23335;DHT22;11839;48.598;8.870;2023-08-21T03:56:46;23.60;99.90
23335;DHT22;11839;48.598;8.870;2023-08-21T03:59:14;23.50;99.90
23335;DHT22;11839;48.598;8.870;2023-08-21T04:01:40;23.50;99.90
23335;DHT22;11839;48.598;8.870;2023-08-21T04:04:07;23.30;99.90
23335;DHT22;11839;48.598;8.870;2023-08-21T04:06:34;22.90;99.90
23335;DHT22;11839;48.598;8.870;2023-08-21T04:09:01;22.90;99.90
23335;DHT22;11839;48.598;8.870;2023-08-21T04:11:30;22.80;99.90
23335;DHT22;11839;48.598;8.870;2023-08-21T04:13:57;22.60;99.90
23335;DHT22;11839;48.598;8.870;2023-08-21T04:16:25;22.50;99.90
23335;DHT22;11839;48.598;8.870;2023-08-21T04:18:52;22.60;99.90
23335;DHT22;11839;48.598;8.870;2023-08-21T04:21:19;22.70;99.90
23335;DHT22;11839;48.598;8.870;2023-08-21T04:23:46;22.60;99.90
23335;DHT22;11839;48.598;8.870;2023-08-21T04:26:13;22.50;99.90
23335;DHT22;11839;48.598;8.870;2023-08-21T04:28:40;22.60;99.90
23335;DHT22;11839;48.598;8.870;2023-08-21T04:31:07;23.10;99.90
23335;DHT22;11839;48.598;8.870;2023-08-21T04:33:35;23.00;99.90
23335;DHT22;11839;48.598;8.870;2023-08-21T04:36:02;23.00;99.90
23335;DHT22;11839;48.598;8.870;2023-08-21T04:38:29;23.10;99.90
23335;DHT22;11839;48.598;8.870;2023-08-21T04:40:56;23.00;99.90
23335;DHT22;11839;48.598;8.870;2023-08-21T04:43:23;23.20;99.90
23335;DHT22;11839;48.598;8.870;2023-08-21T04:45:51;23.40;99.90
23335;DHT22;11839;48.598;8.870;2023-08-21T04:48:18;23.30;99.90
23335;DHT22;11839;48.598;8.870;2023-08-21T04:50:47;23.40;99.90
23335;DHT22;11839;48.598;8.870;2023-08-21T04:53:14;23.50;99.90
23335;DHT22;11839;48.598;8.870;2023-08-21T04:55:41;23.30;99.90
23335;DHT22;11839;48.598;8.870;2023-08-21T04:58:08;23.20;99.90
23335;DHT22;11839;48.598;8.870;2023-08-21T05:00:35;23.10;99.90
23335;DHT22;11839;48.598;8.870;2023-08-21T05:03:03;23.40;99.90
23335;DHT22;11839;48.598;8.870;2023-08-21T05:05:30;23.70;99.90
23335;DHT22;11839;48.598;8.870;2023-08-21T05:07:58;24.10;99.90
23335;DHT22;11839;48.598;8.870;2023-08-21T05:10:25;24.30;99.90
23335;DHT22;11839;48.598;8.870;2023-08-21T05:12:52;24.40;99.90
23335;DHT22;11839;48.598;8.870;2023-08-21T05:15:19;24.10;99.90
23335;DHT22;11839;48.598;8.870;2023-08-21T05:17:46;23.90;99.90
23335;DHT22;11839;48.598;8.870;2023-08-21T05:20:12;24.10;99.90
23335;DHT22;11839;48.598;8.870;2023-08-21T05:22:40;24.30;99.90
23335;DHT22;11839;48.598;8.870;2023-08-21T05:25:09;24.20;99.90
23335;DHT22;11839;48.598;8.870;2023-08-21T05:27:36;24.30;99.90
23335;DHT22;11839;48.598;8.870;2023-08-21T05:30:04;24.20;99.90
23335;DHT22;11839;48.598;8.870;2023-08-21T05:32:30;24.30;99.90
23335;DHT22;11839;48.598;8.870;2023-08-21T05:34:57;24.40;99.90
23335;DHT22;11839;48.598;8.870;2023-08-21T05:37:24;24.40;99.90
23335;DHT22;11839;48.598;8.870;2023-08-21T05:39:52;24.60;99.90
23335;DHT22;11839;48.598;8.870;2023-08-21T05:42:20;24.60;99.90
23335;DHT22;11839;48.598;8.870;2023-08-21T05:44:47;24.80;99.90
23335;DHT22;11839;48.598;8.870;2023-08-21T05:47:14;25.00;99.90
23335;DHT22;11839;48.598;8.870;2023-08-21T05:49:41;25.10;99.90
23335;DHT22;11839;48.598;8.870;2023-08-21T05:52:09;25.20;99.90
23335;DHT22;11839;48.598;8.870;2023-08-21T05:54:35;25.20;99.90
23335;DHT22;11839;48.598;8.870;2023-08-21T05:57:03;25.30;99.90
23335;DHT22;11839;48.598;8.870;2023-08-21T05:59:32;25.40;99.90
23335;DHT22;11839;48.598;8.870;2023-08-21T06:01:59;25.40;99.90
23335;DHT22;11839;48.598;8.870;2023-08-21T06:04:26;25.50;99.90
23335;DHT22;11839;48.598;8.870;2023-08-21T06:06:53;25.60;99.90
23335;DHT22;11839;48.598;8.870;2023-08-21T06:09:20;25.60;99.90
23335;DHT22;11839;48.598;8.870;2023-08-21T06:11:46;25.60;99.90
23335;DHT22;11839;48.598;8.870;2023-08-21T06:14:13;25.80;99.90
23335;DHT22;11839;48.598;8.870;2023-08-21T06:16:41;25.90;99.90
23335;DHT22;11839;48.598;8.870;2023-08-21T06:19:09;26.00;99.90
23335;DHT22;11839;48.598;8.870;2023-08-21T06:21:36;26.00;99.90
23335;DHT22;11839;48.598;8.870;2023-08-21T06:24:03;26.20;99.90
23335;DHT22;11839;48.598;8.870;2023-08-21T06:26:29;26.30;99.90
23335;DHT22;11839;48.598;8.870;2023-08-21T06:28:56;26.40;99.90
23335;DHT22;11839;48.598;8.870;2023-08-21T06:31:23;26.60;99.90
23335;DHT22;11839;48.598;8.870;2023-08-21T06:33:51;26.70;99.90
23335;DHT22;11839;48.598;8.870;2023-08-21T06:36:18;26.80;99.90
23335;DHT22;11839;48.598;8.870;2023-08-21T06:38:45;26.80;99.90
23335;DHT22;11839;48.598;8.870;2023-08-21T06:41:11;27.00;99.90
23335;DHT22;11839;48.598;8.870;2023-08-21T06:43:38;27.30;99.90
23335;DHT22;11839;48.598;8.870;2023-08-21T06:46:05;27.60;99.90
23335;DHT22;11839;48.598;8.870;2023-08-21T06:48:32;27.70;99.90
23335;DHT22;11839;48.598;8.870;2023-08-21T06:51:00;27.90;99.90
23335;DHT22;11839;48.598;8.870;2023-08-21T06:53:28;28.10;99.90
23335;DHT22;11839;48.598;8.870;2023-08-21T06:55:55;28.30;99.90
23335;DHT22;11839;48.598;8.870;2023-08-21T06:58:22;28.50;99.90
23335;DHT22;11839;48.598;8.870;2023-08-21T07:00:48;28.60;99.90
23335;DHT22;11839;48.598;8.870;2023-08-21T07:03:15;28.80;99.90
23335;DHT22;11839;48.598;8.870;2023-08-21T07:05:46;28.90;99.90
23335;DHT22;11839;48.598;8.870;2023-08-21T07:08:14;29.00;99.90
23335;DHT22;11839;48.598;8.870;2023-08-21T07:10:41;29.10;99.90
23335;DHT22;11839;48.598;8.870;2023-08-21T07:13:07;29.30;99.90
23335;DHT22;11839;48.598;8.870;2023-08-21T07:15:34;29.40;99.90
23335;DHT22;11839;48.598;8.870;2023-08-21T07:18:01;29.50;99.90
23335;DHT22;11839;48.598;8.870;2023-08-21T07:20:28;29.70;99.90
23335;DHT22;11839;48.598;8.870;2023-08-21T07:22:55;29.80;99.90
23335;DHT22;11839;48.598;8.870;2023-08-21T07:25:23;29.90;99.90
23335;DHT22;11839;48.598;8.870;2023-08-21T07:27:50;30.10;99.90
23335;DHT22;11839;48.598;8.870;2023-08-21T07:30:19;30.30;99.90
23335;DHT22;11839;48.598;8.870;2023-08-21T07:32:46;30.40;99.90
23335;DHT22;11839;48.598;8.870;2023-08-21T07:35:13;30.70;99.90
23335;DHT22;11839;48.598;8.870;2023-08-21T07:37:43;30.80;99.90
23335;DHT22;11839;48.598;8.870;2023-08-21T07:40:10;30.70;99.90
23335;DHT22;11839;48.598;8.870;2023-08-21T07:42:39;30.60;99.90
23335;DHT22;11839;48.598;8.870;2023-08-21T07:45:06;30.70;99.90
23335;DHT22;11839;48.598;8.870;2023-08-21T07:47:33;30.70;99.90
23335;DHT22;11839;48.598;8.870;2023-08-21T07:50:00;30.90;99.90
23335;DHT22;11839;48.598;8.870;2023-08-21T07:52:26;31.00;99.90
23335;DHT22;11839;48.598;8.870;2023-08-21T07:54:54;30.90;99.90
23335;DHT22;11839;48.598;8.870;2023-08-21T07:57:20;30.70;99.90
23335;DHT22;11839;48.598;8.870;2023-08-21T07:59:49;31.00;99.90
23335;DHT22;11839;48.598;8.870;2023-08-21T08:02:15;31.00;99.90
23335;DHT22;11839;48.598;8.870;2023-08-21T08:04:42;30.90;99.90
23335;DHT22;11839;48.598;8.870;2023-08-21T08:07:09;31.20;99.90
23335;DHT22;11839;48.598;8.870;2023-08-21T08:09:36;31.30;99.90
23335;DHT22;11839;48.598;8.870;2023-08-21T08:12:03;31.50;99.90
23335;DHT22;11839;48.598;8.870;2023-08-21T08:14:30;31.20;99.90
23335;DHT22;11839;48.598;8.870;2023-08-21T08:16:58;31.50;99.90
23335;DHT22;11839;48.598;8.870;2023-08-21T08:19:25;31.50;99.90
23335;DHT22;11839;48.598;8.870;2023-08-21T08:21:52;31.60;99.90
23335;DHT22;11839;48.598;8.870;2023-08-21T08:24:18;31.80;99.90
23335;DHT22;11839;48.598;8.870;2023-08-21T08:26:45;32.20;99.90
23335;DHT22;11839;48.598;8.870;2023-08-21T08:29:12;32.30;99.90
23335;DHT22;11839;48.598;8.870;2023-08-21T08:31:39;32.30;99.90
23335;DHT22;11839;48.598;8.870;2023-08-21T08:34:07;31.90;99.90
23335;DHT22;11839;48.598;8.870;2023-08-21T08:36:35;32.10;99.90
23335;DHT22;11839;48.598;8.870;2023-08-21T08:39:01;31.90;99.90
23335;DHT22;11839;48.598;8.870;2023-08-21T08:41:34;31.90;99.90
23335;DHT22;11839;48.598;8.870;2023-08-21T08:44:04;31.80;99.90
23335;DHT22;11839;48.598;8.870;2023-08-21T08:46:31;32.30;99.90
23335;DHT22;11839;48.598;8.870;2023-08-21T08:48:58;32.50;99.90
23335;DHT22;11839;48.598;8.870;2023-08-21T08:51:28;32.40;99.90
23335;DHT22;11839;48.598;8.870;2023-08-21T08:53:58;32.40;99.90
23335;DHT22;11839;48.598;8.870;2023-08-21T08:56:25;32.70;99.90
23335;DHT22;11839;48.598;8.870;2023-08-21T08:58:52;32.80;99.90
23335;DHT22;11839;48.598;8.870;2023-08-21T09:01:19;32.30;99.90
23335;DHT22;11839;48.598;8.870;2023-08-21T09:03:46;32.00;99.90
23335;DHT22;11839;48.598;8.870;2023-08-21T09:06:15;32.20;99.90
23335;DHT22;11839;48.598;8.870;2023-08-21T09:08:53;32.00;99.90
23335;DHT22;11839;48.598;8.870;2023-08-21T09:11:20;31.80;99.90
23335;DHT22;11839;48.598;8.870;2023-08-21T09:13:49;31.70;99.90
23335;DHT22;11839;48.598;8.870;2023-08-21T09:16:17;32.10;99.90
23335;DHT22;11839;48.598;8.870;2023-08-21T09:18:47;32.10;99.90
23335;DHT22;11839;48.598;8.870;2023-08-21T09:21:16;32.00;99.90
23335;DHT22;11839;48.598;8.870;2023-08-21T09:23:44;32.00;99.90
23335;DHT22;11839;48.598;8.870;2023-08-21T09:26:11;32.30;99.90
23335;DHT22;11839;48.598;8.870;2023-08-21T09:28:44;32.50;99.90
23335;DHT22;11839;48.598;8.870;2023-08-21T09:31:11;32.60;99.90
23335;DHT22;11839;48.598;8.870;2023-08-21T09:33:38;31.90;99.90
23335;DHT22;11839;48.598;8.870;2023-08-21T09:36:05;31.60;99.90
23335;DHT22;11839;48.598;8.870;2023-08-21T09:38:33;32.00;99.90
23335;DHT22;11839;48.598;8.870;2023-08-21T09:41:03;32.40;99.90
23335;DHT22;11839;48.598;8.870;2023-08-21T09:43:30;32.60;99.90
23335;DHT22;11839;48.598;8.870;2023-08-21T09:45:57;32.20;99.90
23335;DHT22;11839;48.598;8.870;2023-08-21T09:48:25;31.60;99.90
23335;DHT22;11839;48.598;8.870;2023-08-21T09:50:53;31.00;99.90
23335;DHT22;11839;48.598;8.870;2023-08-21T09:53:21;31.20;99.90
23335;DHT22;11839;48.598;8.870;2023-08-21T09:55:50;31.50;99.90
23335;DHT22;11839;48.598;8.870;2023-08-21T09:58:20;31.60;99.90
23335;DHT22;11839;48.598;8.870;2023-08-21T10:00:49;31.60;99.90
23335;DHT22;11839;48.598;8.870;2023-08-21T10:03:19;31.50;99.90
23335;DHT22;11839;48.598;8.870;2023-08-21T10:05:47;31.70;99.90
23335;DHT22;11839;48.598;8.870;2023-08-21T10:08:17;32.40;99.90
23335;DHT22;11839;48.598;8.870;2023-08-21T10:10:44;32.40;99.90
23335;DHT22;11839;48.598;8.870;2023-08-21T10:13:11;33.10;99.90
23335;DHT22;11839;48.598;8.870;2023-08-21T10:15:40;33.80;99.90
23335;DHT22;11839;48.598;8.870;2023-08-21T10:18:21;33.80;99.90
23335;DHT22;11839;48.598;8.870;2023-08-21T10:20:49;33.60;99.90
23335;DHT22;11839;48.598;8.870;2023-08-21T10:23:27;33.70;99.90
23335;DHT22;11839;48.598;8.870;2023-08-21T10:25:57;32.80;99.90
23335;DHT22;11839;48.598;8.870;2023-08-21T10:28:25;32.90;99.90
23335;DHT22;11839;48.598;8.870;2023-08-21T10:30:53;33.00;99.90
23335;DHT22;11839;48.598;8.870;2023-08-21T10:33:45;32.80;99.90
23335;DHT22;11839;48.598;8.870;2023-08-21T10:36:12;33.00;99.90
23335;DHT22;11839;48.598;8.870;2023-08-21T10:38:58;33.20;99.90
23335;DHT22;11839;48.598;8.870;2023-08-21T10:41:26;33.10;99.90
23335;DHT22;11839;48.598;8.870;2023-08-21T10:43:53;33.10;99.90
23335;DHT22;11839;48.598;8.870;2023-08-21T10:46:22;32.80;99.90
23335;DHT22;11839;48.598;8.870;2023-08-21T10:48:49;32.20;99.90
23335;DHT22;11839;48.598;8.870;2023-08-21T10:51:16;32.20;99.90
23335;DHT22;11839;48.598;8.870;2023-08-21T10:53:43;32.40;99.90
23335;DHT22;11839;48.598;8.870;2023-08-21T10:56:10;32.70;99.90
23335;DHT22;11839;48.598;8.870;2023-08-21T10:58:38;33.00;99.90
23335;DHT22;11839;48.598;8.870;2023-08-21T11:01:07;33.60;99.90
23335;DHT22;11839;48.598;8.870;2023-08-21T11:03:38;33.40;99.90
23335;DHT22;11839;48.598;8.870;2023-08-21T11:06:05;33.00;99.90
23335;DHT22;11839;48.598;8.870;2023-08-21T11:08:33;33.20;99.90
23335;DHT22;11839;48.598;8.870;2023-08-21T11:11:00;33.40;99.90
23335;DHT22;11839;48.598;8.870;2023-08-21T11:13:27;33.30;99.90
23335;DHT22;11839;48.598;8.870;2023-08-21T11:16:00;33.30;99.90
23335;DHT22;11839;48.598;8.870;2023-08-21T11:18:32;33.80;99.90
23335;DHT22;11839;48.598;8.870;2023-08-21T11:21:08;34.20;99.90
23335;DHT22;11839;48.598;8.870;2023-08-21T11:23:36;34.30;99.90
23335;DHT22;11839;48.598;8.870;2023-08-21T11:26:06;34.40;99.90
23335;DHT22;11839;48.598;8.870;2023-08-21T11:28:33;34.90;99.90
23335;DHT22;11839;48.598;8.870;2023-08-21T11:31:00;35.20;99.70
23335;DHT22;11839;48.598;8.870;2023-08-21T11:33:27;34.40;99.90
23335;DHT22;11839;48.598;8.870;2023-08-21T11:35:55;33.60;99.90
23335;DHT22;11839;48.598;8.870;2023-08-21T11:38:26;33.60;99.90
23335;DHT22;11839;48.598;8.870;2023-08-21T11:40:54;33.60;99.90
23335;DHT22;11839;48.598;8.870;2023-08-21T11:43:22;33.90;99.90
23335;DHT22;11839;48.598;8.870;2023-08-21T11:45:49;34.00;99.90
23335;DHT22;11839;48.598;8.870;2023-08-21T11:48:19;33.90;99.90
23335;DHT22;11839;48.598;8.870;2023-08-21T11:50:48;34.40;99.90
23335;DHT22;11839;48.598;8.870;2023-08-21T11:53:15;33.70;99.90
23335;DHT22;11839;48.598;8.870;2023-08-21T11:55:43;32.90;99.90
23335;DHT22;11839;48.598;8.870;2023-08-21T11:58:10;32.90;99.90
23335;DHT22;11839;48.598;8.870;2023-08-21T12:00:39;33.20;99.90
23335;DHT22;11839;48.598;8.870;2023-08-21T12:03:06;32.90;99.90
23335;DHT22;11839;48.598;8.870;2023-08-21T12:05:35;32.50;99.90
23335;DHT22;11839;48.598;8.870;2023-08-21T12:08:08;32.50;99.90
23335;DHT22;11839;48.598;8.870;2023-08-21T12:10:35;32.60;99.90
23335;DHT22;11839;48.598;8.870;2023-08-21T12:13:03;32.50;99.90
23335;DHT22;11839;48.598;8.870;2023-08-21T12:15:30;32.70;99.90
23335;DHT22;11839;48.598;8.870;2023-08-21T12:17:57;33.20;99.90
23335;DHT22;11839;48.598;8.870;2023-08-21T12:20:24;33.60;99.90
23335;DHT22;11839;48.598;8.870;2023-08-21T12:22:50;34.10;99.90
23335;DHT22;11839;48.598;8.870;2023-08-21T12:25:17;34.30;99.90
23335;DHT22;11839;48.598;8.870;2023-08-21T12:27:45;33.80;99.90
23335;DHT22;11839;48.598;8.870;2023-08-21T12:30:13;33.80;99.90
23335;DHT22;11839;48.598;8.870;2023-08-21T12:32:40;34.20;99.90
23335;DHT22;11839;48.598;8.870;2023-08-21T12:35:08;34.50;99.90
23335;DHT22;11839;48.598;8.870;2023-08-21T12:37:37;35.00;99.00
23335;DHT22;11839;48.598;8.870;2023-08-21T12:40:05;35.30;98.80
23335;DHT22;11839;48.598;8.870;2023-08-21T12:42:32;35.50;98.20
23335;DHT22;11839;48.598;8.870;2023-08-21T12:44:59;35.10;98.30
23335;DHT22;11839;48.598;8.870;2023-08-21T12:47:27;35.00;98.10
23335;DHT22;11839;48.598;8.870;2023-08-21T12:49:54;35.10;98.60
23335;DHT22;11839;48.598;8.870;2023-08-21T12:52:20;34.90;98.70
23335;DHT22;11839;48.598;8.870;2023-08-21T12:54:47;34.10;99.40
23335;DHT22;11839;48.598;8.870;2023-08-21T12:57:13;34.10;99.20
23335;DHT22;11839;48.598;8.870;2023-08-21T12:59:42;33.70;99.80
23335;DHT22;11839;48.598;8.870;2023-08-21T13:02:09;33.70;99.30
23335;DHT22;11839;48.598;8.870;2023-08-21T13:04:37;33.60;99.70
23335;DHT22;11839;48.598;8.870;2023-08-21T13:07:04;34.10;99.40
23335;DHT22;11839;48.598;8.870;2023-08-21T13:09:31;34.50;98.60
23335;DHT22;11839;48.598;8.870;2023-08-21T13:11:59;34.40;98.80
23335;DHT22;11839;48.598;8.870;2023-08-21T13:14:26;34.40;98.70
23335;DHT22;11839;48.598;8.870;2023-08-21T13:16:52;34.40;98.70
23335;DHT22;11839;48.598;8.870;2023-08-21T13:19:19;34.50;98.50
23335;DHT22;11839;48.598;8.870;2023-08-21T13:21:47;34.30;98.30
23335;DHT22;11839;48.598;8.870;2023-08-21T13:24:14;34.10;97.90
23335;DHT22;11839;48.598;8.870;2023-08-21T13:26:41;34.10;97.60
23335;DHT22;11839;48.598;8.870;2023-08-21T13:29:07;34.10;98.10
23335;DHT22;11839;48.598;8.870;2023-08-21T13:31:34;34.30;98.40
23335;DHT22;11839;48.598;8.870;2023-08-21T13:34:01;34.40;97.70
23335;DHT22;11839;48.598;8.870;2023-08-21T13:36:28;34.40;97.20
23335;DHT22;11839;48.598;8.870;2023-08-21T13:38:57;34.30;97.80
23335;DHT22;11839;48.598;8.870;2023-08-21T13:41:23;34.60;97.30
23335;DHT22;11839;48.598;8.870;2023-08-21T13:43:50;35.40;97.30
23335;DHT22;11839;48.598;8.870;2023-08-21T13:46:17;35.60;96.50
23335;DHT22;11839;48.598;8.870;2023-08-21T13:48:44;35.80;95.40
23335;DHT22;11839;48.598;8.870;2023-08-21T13:51:10;36.20;95.40
23335;DHT22;11839;48.598;8.870;2023-08-21T13:53:37;37.20;94.40
23335;DHT22;11839;48.598;8.870;2023-08-21T13:56:05;37.60;93.40
23335;DHT22;11839;48.598;8.870;2023-08-21T13:58:32;37.00;93.60
23335;DHT22;11839;48.598;8.870;2023-08-21T14:00:59;36.60;93.70
23335;DHT22;11839;48.598;8.870;2023-08-21T14:03:26;36.90;93.40
23335;DHT22;11839;48.598;8.870;2023-08-21T14:05:52;37.10;92.90
23335;DHT22;11839;48.598;8.870;2023-08-21T14:08:19;37.10;93.30
23335;DHT22;11839;48.598;8.870;2023-08-21T14:10:46;37.90;92.40
23335;DHT22;11839;48.598;8.870;2023-08-21T14:13:14;37.40;92.20
23335;DHT22;11839;48.598;8.870;2023-08-21T14:15:41;36.10;93.10
23335;DHT22;11839;48.598;8.870;2023-08-21T14:18:08;36.20;93.80
23335;DHT22;11839;48.598;8.870;2023-08-21T14:20:34;35.80;94.00
23335;DHT22;11839;48.598;8.870;2023-08-21T14:23:01;36.10;94.00
23335;DHT22;11839;48.598;8.870;2023-08-21T14:25:28;36.20;93.40
23335;DHT22;11839;48.598;8.870;2023-08-21T14:27:55;36.20;93.90
23335;DHT22;11839;48.598;8.870;2023-08-21T14:30:23;36.50;93.30
23335;DHT22;11839;48.598;8.870;2023-08-21T14:32:50;37.20;93.00
23335;DHT22;11839;48.598;8.870;2023-08-21T14:35:17;36.70;92.70
23335;DHT22;11839;48.598;8.870;2023-08-21T14:37:43;37.30;92.10
23335;DHT22;11839;48.598;8.870;2023-08-21T14:40:10;37.50;92.30
23335;DHT22;11839;48.598;8.870;2023-08-21T14:42:38;37.50;91.90
23335;DHT22;11839;48.598;8.870;2023-08-21T14:45:05;37.10;92.10
23335;DHT22;11839;48.598;8.870;2023-08-21T14:47:34;37.40;92.00
23335;DHT22;11839;48.598;8.870;2023-08-21T14:50:02;37.30;91.90
23335;DHT22;11839;48.598;8.870;2023-08-21T14:52:28;36.70;92.30
23335;DHT22;11839;48.598;8.870;2023-08-21T14:54:55;36.60;92.30
23335;DHT22;11839;48.598;8.870;2023-08-21T14:57:23;37.00;91.90
23335;DHT22;11839;48.598;8.870;2023-08-21T14:59:50;36.70;91.50
23335;DHT22;11839;48.598;8.870;2023-08-21T15:02:16;37.30;91.10
23335;DHT22;11839;48.598;8.870;2023-08-21T15:04:44;37.80;90.40
23335;DHT22;11839;48.598;8.870;2023-08-21T15:07:11;37.90;90.30
23335;DHT22;11839;48.598;8.870;2023-08-21T15:09:38;37.60;90.90
23335;DHT22;11839;48.598;8.870;2023-08-21T15:12:06;37.70;90.30
23335;DHT22;11839;48.598;8.870;2023-08-21T15:14:33;37.20;90.60
23335;DHT22;11839;48.598;8.870;2023-08-21T15:16:59;35.70;92.00
23335;DHT22;11839;48.598;8.870;2023-08-21T15:19:26;34.80;93.60
23335;DHT22;11839;48.598;8.870;2023-08-21T15:21:54;34.30;94.00
23335;DHT22;11839;48.598;8.870;2023-08-21T15:24:21;33.90;94.30
23335;DHT22;11839;48.598;8.870;2023-08-21T15:26:48;33.60;94.80
23335;DHT22;11839;48.598;8.870;2023-08-21T15:29:15;33.60;94.90
23335;DHT22;11839;48.598;8.870;2023-08-21T15:31:42;33.80;95.20